Time,TemperatureF,DewpointF,PressureIn,WindDirection,WindDirectionDegrees,WindSpeedMPH,WindSpeedGustMPH,Humidity,HourlyPrecipIn,Conditions,Clouds,dailyrainin,SolarRadiationWatts/m^2,SoftwareType,DateUTC
2013-10-06 00:44:00,66.0,66.0,-100.00,SE,133,1.0,5.0,100,0.07,,,-99.99,0.000000,,2013-10-06 04:44:00,
2013-10-06 00:54:00,66.0,66.0,-100.00,SE,133,1.0,5.0,100,0.07,,,-99.99,0.000000,,2013-10-06 04:54:00,
2013-10-06 01:03:00,66.0,66.0,-100.00,SE,133,1.0,5.0,100,0.07,,,-99.99,0.000000,,2013-10-06 05:03:00,
2013-10-06 01:43:00,66.0,66.0,-100.00,SE,144,3.0,7.0,100,0.18,,,1.11,0.000000,,2013-10-06 05:43:00,
2013-10-06 01:52:00,66.0,66.0,-100.00,SE,144,3.0,7.0,100,0.18,,,1.11,0.000000,,2013-10-06 05:52:00,
2013-10-06 02:02:00,66.0,66.0,-100.00,SE,144,3.0,7.0,100,0.18,,,1.11,0.000000,,2013-10-06 06:02:00,
2013-10-06 02:42:00,66.0,66.0,-100.00,SSE,152,2.0,9.0,100,0.12,,,1.23,0.000000,,2013-10-06 06:42:00,
2013-10-06 02:52:00,66.0,66.0,-100.00,SSE,152,2.0,9.0,100,0.12,,,1.23,0.000000,,2013-10-06 06:52:00,
2013-10-06 03:02:00,66.0,66.0,-100.00,SSE,152,2.0,9.0,100,0.12,,,1.23,0.000000,,2013-10-06 07:02:00,
2013-10-06 03:43:00,66.0,66.0,-100.00,SSE,151,4.0,12.0,100,0.01,,,1.24,0.000000,,2013-10-06 07:43:00,
2013-10-06 03:52:00,66.0,66.0,-100.00,SSE,151,4.0,12.0,100,0.01,,,1.24,0.000000,,2013-10-06 07:52:00,
2013-10-06 04:03:00,66.0,66.0,-100.00,SSE,151,4.0,12.0,100,0.01,,,1.24,0.000000,,2013-10-06 08:03:00,
2013-10-06 04:42:00,65.0,65.0,-100.00,WNW,294,0.0,13.0,100,0.89,,,2.13,0.000000,,2013-10-06 08:42:00,
2013-10-06 04:53:00,65.0,65.0,-100.00,WNW,294,0.0,13.0,100,0.89,,,2.13,0.000000,,2013-10-06 08:53:00,
2013-10-06 05:01:00,65.0,65.0,-100.00,WNW,294,0.0,13.0,100,0.89,,,2.13,0.000000,,2013-10-06 09:01:00,
2013-10-06 05:43:00,65.0,65.0,-100.00,West,271,0.0,5.0,100,0.11,,,2.24,0.000000,,2013-10-06 09:43:00,
2013-10-06 05:53:00,65.0,65.0,-100.00,West,271,0.0,5.0,100,0.11,,,2.24,0.000000,,2013-10-06 09:53:00,
2013-10-06 06:03:00,65.0,65.0,-100.00,West,271,0.0,5.0,100,0.11,,,2.24,0.000000,,2013-10-06 10:03:00,
2013-10-06 06:43:00,64.0,64.0,-100.00,SSW,206,0.0,3.0,100,0.28,,,2.52,0.000000,,2013-10-06 10:43:00,
2013-10-06 06:53:00,64.0,64.0,-100.00,SSW,206,0.0,3.0,100,0.28,,,2.52,0.000000,,2013-10-06 10:53:00,
2013-10-06 07:02:00,64.0,64.0,-100.00,SSW,206,0.0,3.0,100,0.28,,,2.52,0.000000,,2013-10-06 11:02:00,
2013-10-06 07:42:00,64.0,64.0,-100.00,South,181,1.0,7.0,100,0.14,,,2.66,0.000000,,2013-10-06 11:42:00,
2013-10-06 07:52:00,64.0,64.0,-100.00,South,181,1.0,7.0,100,0.14,,,2.66,0.000000,,2013-10-06 11:52:00,
2013-10-06 08:02:00,64.0,64.0,-100.00,South,181,1.0,7.0,100,0.14,,,2.66,0.000000,,2013-10-06 12:02:00,
2013-10-06 08:42:00,65.0,65.0,-100.00,South,186,2.0,9.0,100,0.12,,,2.78,0.000000,,2013-10-06 12:42:00,
2013-10-06 08:52:00,65.0,65.0,-100.00,South,186,2.0,9.0,100,0.12,,,2.78,0.000000,,2013-10-06 12:52:00,
2013-10-06 09:02:00,65.0,65.0,-100.00,South,186,2.0,9.0,100,0.12,,,2.78,0.000000,,2013-10-06 13:02:00,
2013-10-06 09:42:00,65.0,65.0,-100.00,WSW,256,1.0,7.0,100,0.17,,,2.95,4.000000,,2013-10-06 13:42:00,
2013-10-06 09:52:00,65.0,65.0,-100.00,WSW,256,1.0,7.0,100,0.17,,,2.95,4.000000,,2013-10-06 13:52:00,
2013-10-06 10:02:00,65.0,65.0,-100.00,WSW,256,1.0,7.0,100,0.17,,,2.95,4.000000,,2013-10-06 14:02:00,
2013-10-06 10:42:00,66.0,66.0,-100.00,SW,225,1.0,7.0,100,0.06,,,3.01,30.000000,,2013-10-06 14:42:00,
2013-10-06 10:52:00,66.0,66.0,-100.00,SW,225,1.0,7.0,100,0.06,,,3.01,30.000000,,2013-10-06 14:52:00,
2013-10-06 11:02:00,66.0,66.0,-100.00,SW,225,1.0,7.0,100,0.06,,,3.01,30.000000,,2013-10-06 15:02:00,
2013-10-06 11:44:00,67.0,67.0,-100.00,SW,231,1.0,9.0,100,0.01,,,3.02,74.000000,,2013-10-06 15:44:00,
2013-10-06 11:54:00,67.0,67.0,-100.00,SW,231,1.0,9.0,100,0.01,,,3.02,74.000000,,2013-10-06 15:54:00,
2013-10-06 12:03:00,67.0,67.0,-100.00,SW,231,1.0,9.0,100,0.01,,,3.02,74.000000,,2013-10-06 16:03:00,
2013-10-06 12:43:00,59.0,59.0,-100.00,WNW,296,3.0,9.0,99,0.05,,,3.05,74.000000,,2013-10-06 16:43:00,
2013-10-06 12:53:00,59.0,59.0,-100.00,WNW,296,3.0,9.0,99,0.05,,,3.05,74.000000,,2013-10-06 16:53:00,
2013-10-06 13:02:00,59.0,59.0,-100.00,WNW,296,3.0,9.0,99,0.05,,,3.05,74.000000,,2013-10-06 17:02:00,
2013-10-06 13:42:00,57.0,56.0,-100.00,WNW,293,4.0,15.0,98,0.07,,,3.12,90.000000,,2013-10-06 17:42:00,
2013-10-06 13:52:00,57.0,56.0,-100.00,WNW,293,4.0,15.0,98,0.07,,,3.12,90.000000,,2013-10-06 17:52:00,
2013-10-06 14:02:00,57.0,56.0,-100.00,WNW,293,4.0,15.0,98,0.07,,,3.12,90.000000,,2013-10-06 18:02:00,
2013-10-06 14:43:00,57.0,57.0,-100.00,WNW,291,3.0,9.0,99,0.00,,,3.03,124.000000,,2013-10-06 18:43:00,
2013-10-06 14:52:00,57.0,57.0,-100.00,WNW,291,3.0,9.0,99,0.00,,,3.03,124.000000,,2013-10-06 18:52:00,
2013-10-06 15:01:00,57.0,57.0,-100.00,WNW,291,3.0,9.0,99,0.00,,,3.03,124.000000,,2013-10-06 19:01:00,
2013-10-06 15:42:00,57.0,56.0,-100.00,WNW,296,4.0,10.0,98,0.01,,,2.99,124.000000,,2013-10-06 19:42:00,
2013-10-06 15:53:00,57.0,56.0,-100.00,WNW,296,4.0,10.0,98,0.01,,,2.99,124.000000,,2013-10-06 19:53:00,
2013-10-06 16:02:00,57.0,56.0,-100.00,WNW,296,4.0,10.0,98,0.01,,,2.99,124.000000,,2013-10-06 20:02:00,
2013-10-06 16:42:00,57.0,55.0,-100.00,WNW,287,1.0,8.0,94,0.00,,,2.99,170.000000,,2013-10-06 20:42:00,
2013-10-06 16:52:00,57.0,55.0,-100.00,WNW,287,1.0,8.0,94,0.00,,,2.99,170.000000,,2013-10-06 20:52:00,
2013-10-06 17:01:00,57.0,55.0,-100.00,WNW,287,1.0,8.0,94,0.00,,,2.99,170.000000,,2013-10-06 21:01:00,
2013-10-06 17:44:00,57.0,55.0,-100.00,West,281,2.0,8.0,92,0.00,,,2.99,102.000000,,2013-10-06 21:44:00,
2013-10-06 17:55:00,57.0,55.0,-100.00,West,281,2.0,8.0,92,0.00,,,2.99,102.000000,,2013-10-06 21:55:00,
2013-10-06 18:04:00,57.0,55.0,-100.00,West,281,2.0,8.0,92,0.00,,,2.99,102.000000,,2013-10-06 22:04:00,
2013-10-06 18:43:00,56.0,53.0,-100.00,West,275,1.0,9.0,89,0.00,,,2.97,101.000000,,2013-10-06 22:43:00,
2013-10-06 18:54:00,56.0,53.0,-100.00,West,275,1.0,9.0,89,0.00,,,2.97,101.000000,,2013-10-06 22:54:00,
2013-10-06 19:03:00,56.0,53.0,-100.00,West,275,1.0,9.0,89,0.00,,,2.97,101.000000,,2013-10-06 23:03:00,
2013-10-06 19:42:00,55.0,53.0,-100.00,SW,234,1.0,5.0,94,0.00,,,2.96,19.000000,,2013-10-06 23:42:00,
2013-10-06 19:53:00,55.0,53.0,-100.00,SW,234,1.0,5.0,94,0.00,,,2.96,19.000000,,2013-10-06 23:53:00,
2013-10-06 20:02:00,55.0,53.0,-100.00,SW,234,1.0,5.0,94,0.00,,,2.96,19.000000,,2013-10-07 00:02:00,
2013-10-06 20:42:00,54.0,53.0,-100.00,SW,234,0.0,6.0,97,0.00,,,2.96,7.000000,,2013-10-07 00:42:00,
2013-10-06 20:52:00,54.0,53.0,-100.00,SW,234,0.0,6.0,97,0.00,,,2.96,7.000000,,2013-10-07 00:52:00,
2013-10-06 21:02:00,54.0,53.0,-100.00,SW,234,0.0,6.0,97,0.00,,,2.96,7.000000,,2013-10-07 01:02:00,
2013-10-06 21:42:00,54.0,54.0,-100.00,WNW,287,1.0,5.0,99,0.00,,,2.77,0.000000,,2013-10-07 01:42:00,
2013-10-06 21:53:00,54.0,54.0,-100.00,WNW,287,1.0,5.0,99,0.00,,,2.77,0.000000,,2013-10-07 01:53:00,
2013-10-06 22:02:00,54.0,54.0,-100.00,WNW,287,1.0,5.0,99,0.00,,,2.77,0.000000,,2013-10-07 02:02:00,
2013-10-06 22:42:00,54.0,50.0,-100.00,NNW,336,2.0,11.0,85,0.00,,,2.40,0.000000,,2013-10-07 02:42:00,
2013-10-06 22:53:00,54.0,50.0,-100.00,NNW,336,2.0,11.0,85,0.00,,,2.40,0.000000,,2013-10-07 02:53:00,
2013-10-06 23:02:00,54.0,50.0,-100.00,NNW,336,2.0,11.0,85,0.00,,,2.40,0.000000,,2013-10-07 03:02:00,
2013-10-06 23:44:00,52.0,44.0,-100.00,NW,318,3.0,11.0,74,0.00,,,2.29,0.000000,,2013-10-07 03:44:00,
2013-10-06 23:54:00,52.0,44.0,-100.00,NW,318,3.0,11.0,74,0.00,,,2.29,0.000000,,2013-10-07 03:54:00,